sensor_id;sensor_type;location;lat;lon;timestamp;P1;durP1;ratioP1;P2;durP2;ratioP2
23260;SDS011;11799;47.740;-3.390;2023-06-10T00:01:29;0.20;;;0.20;;
23260;SDS011;11799;47.740;-3.390;2023-06-10T00:03:55;0.20;;;0.20;;
23260;SDS011;11799;47.740;-3.390;2023-06-10T00:06:21;0.30;;;0.30;;
23260;SDS011;11799;47.740;-3.390;2023-06-10T00:08:49;0.20;;;0.20;;
23260;SDS011;11799;47.740;-3.390;2023-06-10T00:11:15;0.20;;;0.20;;
23260;SDS011;11799;47.740;-3.390;2023-06-10T00:13:41;0.20;;;0.20;;
23260;SDS011;11799;47.740;-3.390;2023-06-10T00:16:06;0.20;;;0.20;;
23260;SDS011;11799;47.740;-3.390;2023-06-10T00:18:32;0.20;;;0.20;;
23260;SDS011;11799;47.740;-3.390;2023-06-10T00:20:58;0.20;;;0.20;;
23260;SDS011;11799;47.740;-3.390;2023-06-10T00:23:29;0.30;;;0.30;;
23260;SDS011;11799;47.740;-3.390;2023-06-10T00:25:58;0.20;;;0.20;;
23260;SDS011;11799;47.740;-3.390;2023-06-10T00:28:24;0.20;;;0.20;;
23260;SDS011;11799;47.740;-3.390;2023-06-10T00:30:50;0.25;;;0.25;;
23260;SDS011;11799;47.740;-3.390;2023-06-10T00:33:16;0.20;;;0.20;;
23260;SDS011;11799;47.740;-3.390;2023-06-10T00:35:42;0.25;;;0.25;;
23260;SDS011;11799;47.740;-3.390;2023-06-10T00:38:07;0.20;;;0.20;;
23260;SDS011;11799;47.740;-3.390;2023-06-10T00:40:33;0.20;;;0.20;;
23260;SDS011;11799;47.740;-3.390;2023-06-10T00:43:04;0.30;;;0.30;;
23260;SDS011;11799;47.740;-3.390;2023-06-10T00:45:29;0.20;;;0.20;;
23260;SDS011;11799;47.740;-3.390;2023-06-10T00:47:57;0.20;;;0.20;;
23260;SDS011;11799;47.740;-3.390;2023-06-10T00:50:23;0.20;;;0.20;;
23260;SDS011;11799;47.740;-3.390;2023-06-10T00:52:50;0.30;;;0.30;;
23260;SDS011;11799;47.740;-3.390;2023-06-10T00:55:17;0.20;;;0.20;;
23260;SDS011;11799;47.740;-3.390;2023-06-10T00:57:44;0.20;;;0.20;;
23260;SDS011;11799;47.740;-3.390;2023-06-10T01:00:11;0.30;;;0.30;;
23260;SDS011;11799;47.740;-3.390;2023-06-10T01:02:37;0.22;;;0.22;;
23260;SDS011;11799;47.740;-3.390;2023-06-10T01:05:03;0.30;;;0.30;;
23260;SDS011;11799;47.740;-3.390;2023-06-10T01:07:40;0.20;;;0.20;;
23260;SDS011;11799;47.740;-3.390;2023-06-10T01:10:15;0.20;;;0.20;;
23260;SDS011;11799;47.740;-3.390;2023-06-10T01:15:39;0.30;;;0.30;;
23260;SDS011;11799;47.740;-3.390;2023-06-10T01:18:05;0.20;;;0.20;;
23260;SDS011;11799;47.740;-3.390;2023-06-10T01:20:37;0.20;;;0.20;;
23260;SDS011;11799;47.740;-3.390;2023-06-10T01:23:05;0.20;;;0.20;;
23260;SDS011;11799;47.740;-3.390;2023-06-10T01:25:31;0.30;;;0.30;;
23260;SDS011;11799;47.740;-3.390;2023-06-10T01:33:38;0.20;;;0.20;;
23260;SDS011;11799;47.740;-3.390;2023-06-10T01:38:43;0.28;;;0.28;;
23260;SDS011;11799;47.740;-3.390;2023-06-10T01:41:10;0.30;;;0.30;;
23260;SDS011;11799;47.740;-3.390;2023-06-10T01:43:38;0.30;;;0.30;;
23260;SDS011;11799;47.740;-3.390;2023-06-10T01:46:04;0.22;;;0.22;;
23260;SDS011;11799;47.740;-3.390;2023-06-10T01:48:30;0.28;;;0.28;;
23260;SDS011;11799;47.740;-3.390;2023-06-10T01:50:55;0.30;;;0.30;;
23260;SDS011;11799;47.740;-3.390;2023-06-10T01:53:21;0.20;;;0.20;;
23260;SDS011;11799;47.740;-3.390;2023-06-10T01:55:47;0.20;;;0.20;;
23260;SDS011;11799;47.740;-3.390;2023-06-10T01:58:13;0.30;;;0.30;;
23260;SDS011;11799;47.740;-3.390;2023-06-10T02:00:39;0.30;;;0.30;;
23260;SDS011;11799;47.740;-3.390;2023-06-10T02:03:07;0.20;;;0.20;;
23260;SDS011;11799;47.740;-3.390;2023-06-10T02:05:33;0.30;;;0.30;;
23260;SDS011;11799;47.740;-3.390;2023-06-10T02:07:58;0.30;;;0.30;;
23260;SDS011;11799;47.740;-3.390;2023-06-10T02:10:24;0.20;;;0.20;;
23260;SDS011;11799;47.740;-3.390;2023-06-10T02:12:50;0.20;;;0.20;;
23260;SDS011;11799;47.740;-3.390;2023-06-10T02:15:16;0.20;;;0.20;;
23260;SDS011;11799;47.740;-3.390;2023-06-10T02:17:41;0.20;;;0.20;;
23260;SDS011;11799;47.740;-3.390;2023-06-10T02:20:07;0.20;;;0.20;;
23260;SDS011;11799;47.740;-3.390;2023-06-10T02:22:36;0.22;;;0.22;;
23260;SDS011;11799;47.740;-3.390;2023-06-10T02:25:01;0.35;;;0.35;;
23260;SDS011;11799;47.740;-3.390;2023-06-10T02:27:27;0.30;;;0.30;;
23260;SDS011;11799;47.740;-3.390;2023-06-10T02:29:54;0.20;;;0.20;;
23260;SDS011;11799;47.740;-3.390;2023-06-10T02:32:20;0.25;;;0.25;;
23260;SDS011;11799;47.740;-3.390;2023-06-10T02:34:45;0.28;;;0.28;;
23260;SDS011;11799;47.740;-3.390;2023-06-10T02:37:12;0.20;;;0.20;;
23260;SDS011;11799;47.740;-3.390;2023-06-10T02:39:38;0.20;;;0.20;;
23260;SDS011;11799;47.740;-3.390;2023-06-10T02:42:08;0.30;;;0.30;;
23260;SDS011;11799;47.740;-3.390;2023-06-10T02:44:34;0.28;;;0.28;;
23260;SDS011;11799;47.740;-3.390;2023-06-10T02:47:00;0.20;;;0.20;;
23260;SDS011;11799;47.740;-3.390;2023-06-10T02:49:26;0.30;;;0.30;;
23260;SDS011;11799;47.740;-3.390;2023-06-10T02:51:55;0.40;;;0.40;;
23260;SDS011;11799;47.740;-3.390;2023-06-10T02:54:22;0.30;;;0.30;;
23260;SDS011;11799;47.740;-3.390;2023-06-10T02:56:49;0.30;;;0.30;;
23260;SDS011;11799;47.740;-3.390;2023-06-10T02:59:20;0.22;;;0.22;;
23260;SDS011;11799;47.740;-3.390;2023-06-10T03:01:46;0.30;;;0.30;;
23260;SDS011;11799;47.740;-3.390;2023-06-10T03:04:11;0.20;;;0.20;;
23260;SDS011;11799;47.740;-3.390;2023-06-10T03:06:39;0.30;;;0.30;;
23260;SDS011;11799;47.740;-3.390;2023-06-10T03:09:19;0.25;;;0.25;;
23260;SDS011;11799;47.740;-3.390;2023-06-10T03:11:48;0.32;;;0.32;;
23260;SDS011;11799;47.740;-3.390;2023-06-10T03:14:13;0.20;;;0.20;;
23260;SDS011;11799;47.740;-3.390;2023-06-10T03:16:39;0.20;;;0.20;;
23260;SDS011;11799;47.740;-3.390;2023-06-10T03:19:08;0.30;;;0.30;;
23260;SDS011;11799;47.740;-3.390;2023-06-10T03:21:35;0.20;;;0.20;;
23260;SDS011;11799;47.740;-3.390;2023-06-10T03:24:03;0.30;;;0.30;;
23260;SDS011;11799;47.740;-3.390;2023-06-10T03:26:30;0.20;;;0.20;;
23260;SDS011;11799;47.740;-3.390;2023-06-10T03:28:55;0.20;;;0.20;;
23260;SDS011;11799;47.740;-3.390;2023-06-10T03:31:23;0.20;;;0.20;;
23260;SDS011;11799;47.740;-3.390;2023-06-10T03:33:51;0.20;;;0.20;;
23260;SDS011;11799;47.740;-3.390;2023-06-10T03:36:16;0.20;;;0.20;;
23260;SDS011;11799;47.740;-3.390;2023-06-10T03:38:42;0.30;;;0.30;;
23260;SDS011;11799;47.740;-3.390;2023-06-10T03:41:08;0.20;;;0.20;;
23260;SDS011;11799;47.740;-3.390;2023-06-10T03:43:34;0.20;;;0.20;;
23260;SDS011;11799;47.740;-3.390;2023-06-10T03:46:00;0.20;;;0.20;;
23260;SDS011;11799;47.740;-3.390;2023-06-10T03:48:25;0.20;;;0.20;;
23260;SDS011;11799;47.740;-3.390;2023-06-10T03:50:52;0.20;;;0.20;;
23260;SDS011;11799;47.740;-3.390;2023-06-10T03:53:19;0.20;;;0.20;;
23260;SDS011;11799;47.740;-3.390;2023-06-10T03:55:45;0.30;;;0.30;;
23260;SDS011;11799;47.740;-3.390;2023-06-10T03:58:11;0.20;;;0.20;;
23260;SDS011;11799;47.740;-3.390;2023-06-10T04:00:41;0.30;;;0.30;;
23260;SDS011;11799;47.740;-3.390;2023-06-10T04:03:09;0.28;;;0.28;;
23260;SDS011;11799;47.740;-3.390;2023-06-10T04:05:42;0.30;;;0.30;;
23260;SDS011;11799;47.740;-3.390;2023-06-10T04:08:08;0.28;;;0.28;;
23260;SDS011;11799;47.740;-3.390;2023-06-10T04:10:34;0.20;;;0.20;;
23260;SDS011;11799;47.740;-3.390;2023-06-10T04:13:00;0.30;;;0.30;;
23260;SDS011;11799;47.740;-3.390;2023-06-10T04:15:29;0.30;;;0.30;;
23260;SDS011;11799;47.740;-3.390;2023-06-10T04:17:58;0.30;;;0.30;;
23260;SDS011;11799;47.740;-3.390;2023-06-10T04:20:25;0.20;;;0.20;;
23260;SDS011;11799;47.740;-3.390;2023-06-10T04:22:51;0.20;;;0.20;;
23260;SDS011;11799;47.740;-3.390;2023-06-10T04:25:18;0.30;;;0.30;;
23260;SDS011;11799;47.740;-3.390;2023-06-10T04:27:44;0.30;;;0.30;;
23260;SDS011;11799;47.740;-3.390;2023-06-10T04:30:10;0.20;;;0.20;;
23260;SDS011;11799;47.740;-3.390;2023-06-10T04:32:37;0.20;;;0.20;;
23260;SDS011;11799;47.740;-3.390;2023-06-10T04:35:05;0.30;;;0.30;;
23260;SDS011;11799;47.740;-3.390;2023-06-10T04:37:31;0.20;;;0.20;;
23260;SDS011;11799;47.740;-3.390;2023-06-10T04:39:57;0.30;;;0.30;;
23260;SDS011;11799;47.740;-3.390;2023-06-10T04:42:25;0.30;;;0.30;;
23260;SDS011;11799;47.740;-3.390;2023-06-10T04:44:50;0.20;;;0.20;;
23260;SDS011;11799;47.740;-3.390;2023-06-10T04:47:16;0.32;;;0.32;;
23260;SDS011;11799;47.740;-3.390;2023-06-10T04:49:44;0.25;;;0.25;;
23260;SDS011;11799;47.740;-3.390;2023-06-10T04:52:09;0.28;;;0.28;;
23260;SDS011;11799;47.740;-3.390;2023-06-10T04:54:38;0.20;;;0.20;;
23260;SDS011;11799;47.740;-3.390;2023-06-10T04:57:04;0.28;;;0.28;;
23260;SDS011;11799;47.740;-3.390;2023-06-10T04:59:31;0.20;;;0.20;;
23260;SDS011;11799;47.740;-3.390;2023-06-10T05:01:56;0.25;;;0.25;;
23260;SDS011;11799;47.740;-3.390;2023-06-10T05:04:22;0.20;;;0.20;;
23260;SDS011;11799;47.740;-3.390;2023-06-10T05:06:47;0.20;;;0.20;;
23260;SDS011;11799;47.740;-3.390;2023-06-10T05:09:13;0.20;;;0.20;;
23260;SDS011;11799;47.740;-3.390;2023-06-10T05:11:38;0.20;;;0.20;;
23260;SDS011;11799;47.740;-3.390;2023-06-10T05:14:04;0.20;;;0.20;;
23260;SDS011;11799;47.740;-3.390;2023-06-10T05:16:30;0.20;;;0.20;;
23260;SDS011;11799;47.740;-3.390;2023-06-10T05:18:55;0.30;;;0.30;;
23260;SDS011;11799;47.740;-3.390;2023-06-10T05:21:21;0.20;;;0.20;;
23260;SDS011;11799;47.740;-3.390;2023-06-10T05:23:47;0.20;;;0.20;;
23260;SDS011;11799;47.740;-3.390;2023-06-10T05:26:12;0.30;;;0.30;;
23260;SDS011;11799;47.740;-3.390;2023-06-10T05:28:38;0.30;;;0.30;;
23260;SDS011;11799;47.740;-3.390;2023-06-10T05:31:03;0.20;;;0.20;;
23260;SDS011;11799;47.740;-3.390;2023-06-10T05:33:29;0.30;;;0.30;;
23260;SDS011;11799;47.740;-3.390;2023-06-10T05:35:55;0.20;;;0.20;;
23260;SDS011;11799;47.740;-3.390;2023-06-10T05:38:20;0.20;;;0.20;;
23260;SDS011;11799;47.740;-3.390;2023-06-10T05:40:46;0.20;;;0.20;;
23260;SDS011;11799;47.740;-3.390;2023-06-10T05:43:11;0.25;;;0.25;;
23260;SDS011;11799;47.740;-3.390;2023-06-10T05:45:37;0.20;;;0.20;;
23260;SDS011;11799;47.740;-3.390;2023-06-10T05:48:02;0.22;;;0.22;;
23260;SDS011;11799;47.740;-3.390;2023-06-10T05:50:28;0.20;;;0.20;;
23260;SDS011;11799;47.740;-3.390;2023-06-10T05:52:54;0.20;;;0.20;;
23260;SDS011;11799;47.740;-3.390;2023-06-10T05:55:20;0.30;;;0.30;;
23260;SDS011;11799;47.740;-3.390;2023-06-10T05:57:45;0.20;;;0.20;;
23260;SDS011;11799;47.740;-3.390;2023-06-10T06:00:11;0.20;;;0.20;;
23260;SDS011;11799;47.740;-3.390;2023-06-10T06:02:40;0.20;;;0.20;;
23260;SDS011;11799;47.740;-3.390;2023-06-10T06:05:06;0.10;;;0.10;;
23260;SDS011;11799;47.740;-3.390;2023-06-10T06:07:32;0.30;;;0.30;;
23260;SDS011;11799;47.740;-3.390;2023-06-10T06:09:58;0.20;;;0.20;;
23260;SDS011;11799;47.740;-3.390;2023-06-10T06:12:23;0.22;;;0.22;;
23260;SDS011;11799;47.740;-3.390;2023-06-10T06:14:49;0.20;;;0.20;;
23260;SDS011;11799;47.740;-3.390;2023-06-10T06:17:14;0.20;;;0.20;;
23260;SDS011;11799;47.740;-3.390;2023-06-10T06:19:40;0.20;;;0.20;;
23260;SDS011;11799;47.740;-3.390;2023-06-10T06:22:05;0.20;;;0.20;;
23260;SDS011;11799;47.740;-3.390;2023-06-10T06:24:32;0.20;;;0.20;;
23260;SDS011;11799;47.740;-3.390;2023-06-10T06:26:58;0.30;;;0.30;;
23260;SDS011;11799;47.740;-3.390;2023-06-10T06:29:23;0.20;;;0.20;;
23260;SDS011;11799;47.740;-3.390;2023-06-10T06:31:49;0.28;;;0.28;;
23260;SDS011;11799;47.740;-3.390;2023-06-10T06:34:14;0.30;;;0.30;;
23260;SDS011;11799;47.740;-3.390;2023-06-10T06:36:40;0.20;;;0.20;;
23260;SDS011;11799;47.740;-3.390;2023-06-10T06:39:06;0.20;;;0.20;;
23260;SDS011;11799;47.740;-3.390;2023-06-10T06:41:32;0.20;;;0.20;;
23260;SDS011;11799;47.740;-3.390;2023-06-10T06:43:57;0.28;;;0.28;;
23260;SDS011;11799;47.740;-3.390;2023-06-10T06:46:24;0.20;;;0.20;;
23260;SDS011;11799;47.740;-3.390;2023-06-10T06:48:49;0.20;;;0.20;;
23260;SDS011;11799;47.740;-3.390;2023-06-10T06:51:15;0.20;;;0.20;;
23260;SDS011;11799;47.740;-3.390;2023-06-10T06:53:40;0.10;;;0.10;;
23260;SDS011;11799;47.740;-3.390;2023-06-10T06:56:10;0.20;;;0.20;;
23260;SDS011;11799;47.740;-3.390;2023-06-10T06:58:36;0.10;;;0.10;;
23260;SDS011;11799;47.740;-3.390;2023-06-10T07:01:01;0.10;;;0.10;;
23260;SDS011;11799;47.740;-3.390;2023-06-10T07:03:27;0.10;;;0.10;;
23260;SDS011;11799;47.740;-3.390;2023-06-10T07:05:52;0.20;;;0.20;;
23260;SDS011;11799;47.740;-3.390;2023-06-10T07:08:18;0.10;;;0.10;;
23260;SDS011;11799;47.740;-3.390;2023-06-10T07:10:43;0.10;;;0.10;;
23260;SDS011;11799;47.740;-3.390;2023-06-10T07:13:09;0.20;;;0.20;;
23260;SDS011;11799;47.740;-3.390;2023-06-10T07:15:35;0.10;;;0.10;;
23260;SDS011;11799;47.740;-3.390;2023-06-10T07:18:01;0.10;;;0.10;;
23260;SDS011;11799;47.740;-3.390;2023-06-10T07:20:26;0.10;;;0.10;;
23260;SDS011;11799;47.740;-3.390;2023-06-10T07:22:52;0.10;;;0.10;;
23260;SDS011;11799;47.740;-3.390;2023-06-10T07:25:17;0.10;;;0.10;;
23260;SDS011;11799;47.740;-3.390;2023-06-10T07:27:43;0.20;;;0.20;;
23260;SDS011;11799;47.740;-3.390;2023-06-10T07:30:09;0.20;;;0.20;;
23260;SDS011;11799;47.740;-3.390;2023-06-10T07:32:34;0.10;;;0.10;;
23260;SDS011;11799;47.740;-3.390;2023-06-10T07:35:00;0.10;;;0.10;;
23260;SDS011;11799;47.740;-3.390;2023-06-10T07:37:26;0.20;;;0.20;;
23260;SDS011;11799;47.740;-3.390;2023-06-10T07:39:51;0.10;;;0.10;;
23260;SDS011;11799;47.740;-3.390;2023-06-10T07:42:17;0.10;;;0.10;;
23260;SDS011;11799;47.740;-3.390;2023-06-10T07:44:43;0.10;;;0.10;;
23260;SDS011;11799;47.740;-3.390;2023-06-10T07:47:09;0.10;;;0.10;;
23260;SDS011;11799;47.740;-3.390;2023-06-10T07:49:34;0.10;;;0.10;;
23260;SDS011;11799;47.740;-3.390;2023-06-10T07:52:00;0.15;;;0.15;;
23260;SDS011;11799;47.740;-3.390;2023-06-10T07:54:25;0.10;;;0.10;;
23260;SDS011;11799;47.740;-3.390;2023-06-10T07:56:51;0.10;;;0.10;;
23260;SDS011;11799;47.740;-3.390;2023-06-10T07:59:18;0.10;;;0.10;;
23260;SDS011;11799;47.740;-3.390;2023-06-10T08:01:44;0.10;;;0.10;;
23260;SDS011;11799;47.740;-3.390;2023-06-10T08:04:09;0.10;;;0.10;;
23260;SDS011;11799;47.740;-3.390;2023-06-10T08:06:35;0.10;;;0.10;;
23260;SDS011;11799;47.740;-3.390;2023-06-10T08:09:02;0.10;;;0.10;;
23260;SDS011;11799;47.740;-3.390;2023-06-10T08:11:28;0.10;;;0.10;;
23260;SDS011;11799;47.740;-3.390;2023-06-10T08:13:55;0.10;;;0.10;;
23260;SDS011;11799;47.740;-3.390;2023-06-10T08:16:20;0.17;;;0.17;;
23260;SDS011;11799;47.740;-3.390;2023-06-10T08:18:46;0.10;;;0.10;;
23260;SDS011;11799;47.740;-3.390;2023-06-10T08:21:11;0.10;;;0.10;;
23260;SDS011;11799;47.740;-3.390;2023-06-10T08:23:37;0.20;;;0.20;;
23260;SDS011;11799;47.740;-3.390;2023-06-10T08:26:02;0.20;;;0.20;;
23260;SDS011;11799;47.740;-3.390;2023-06-10T08:28:28;0.10;;;0.10;;
23260;SDS011;11799;47.740;-3.390;2023-06-10T08:30:53;0.10;;;0.10;;
23260;SDS011;11799;47.740;-3.390;2023-06-10T08:33:19;0.10;;;0.10;;
23260;SDS011;11799;47.740;-3.390;2023-06-10T08:35:45;0.10;;;0.10;;
23260;SDS011;11799;47.740;-3.390;2023-06-10T08:38:10;0.10;;;0.10;;
23260;SDS011;11799;47.740;-3.390;2023-06-10T08:40:36;0.10;;;0.10;;
23260;SDS011;11799;47.740;-3.390;2023-06-10T08:43:25;0.10;;;0.10;;
23260;SDS011;11799;47.740;-3.390;2023-06-10T08:45:56;0.10;;;0.10;;
23260;SDS011;11799;47.740;-3.390;2023-06-10T08:48:26;0.10;;;0.10;;
23260;SDS011;11799;47.740;-3.390;2023-06-10T08:50:54;0.10;;;0.10;;
23260;SDS011;11799;47.740;-3.390;2023-06-10T08:53:22;0.10;;;0.10;;
23260;SDS011;11799;47.740;-3.390;2023-06-10T08:55:50;0.10;;;0.10;;
23260;SDS011;11799;47.740;-3.390;2023-06-10T08:58:19;0.10;;;0.10;;
23260;SDS011;11799;47.740;-3.390;2023-06-10T09:00:45;0.20;;;0.20;;
23260;SDS011;11799;47.740;-3.390;2023-06-10T09:03:11;0.10;;;0.10;;
23260;SDS011;11799;47.740;-3.390;2023-06-10T09:05:37;0.20;;;0.20;;
23260;SDS011;11799;47.740;-3.390;2023-06-10T09:08:03;0.10;;;0.10;;
23260;SDS011;11799;47.740;-3.390;2023-06-10T09:10:33;0.10;;;0.10;;
23260;SDS011;11799;47.740;-3.390;2023-06-10T09:12:59;0.10;;;0.10;;
23260;SDS011;11799;47.740;-3.390;2023-06-10T09:15:24;0.10;;;0.10;;
23260;SDS011;11799;47.740;-3.390;2023-06-10T09:17:50;0.10;;;0.10;;
23260;SDS011;11799;47.740;-3.390;2023-06-10T09:20:16;0.10;;;0.10;;
23260;SDS011;11799;47.740;-3.390;2023-06-10T09:22:42;0.10;;;0.10;;
23260;SDS011;11799;47.740;-3.390;2023-06-10T09:25:09;0.20;;;0.20;;
23260;SDS011;11799;47.740;-3.390;2023-06-10T09:27:46;0.10;;;0.10;;
23260;SDS011;11799;47.740;-3.390;2023-06-10T09:30:28;0.10;;;0.10;;
23260;SDS011;11799;47.740;-3.390;2023-06-10T09:33:00;0.10;;;0.10;;
23260;SDS011;11799;47.740;-3.390;2023-06-10T09:35:27;0.10;;;0.10;;
23260;SDS011;11799;47.740;-3.390;2023-06-10T09:37:55;0.10;;;0.10;;
23260;SDS011;11799;47.740;-3.390;2023-06-10T09:40:22;0.10;;;0.10;;
23260;SDS011;11799;47.740;-3.390;2023-06-10T09:42:52;0.20;;;0.20;;
23260;SDS011;11799;47.740;-3.390;2023-06-10T09:45:20;0.13;;;0.13;;
23260;SDS011;11799;47.740;-3.390;2023-06-10T09:47:46;0.10;;;0.10;;
23260;SDS011;11799;47.740;-3.390;2023-06-10T09:50:13;0.10;;;0.10;;
23260;SDS011;11799;47.740;-3.390;2023-06-10T09:52:38;0.20;;;0.20;;
23260;SDS011;11799;47.740;-3.390;2023-06-10T09:55:04;0.20;;;0.20;;
23260;SDS011;11799;47.740;-3.390;2023-06-10T09:57:33;0.10;;;0.10;;
23260;SDS011;11799;47.740;-3.390;2023-06-10T10:00:19;0.10;;;0.10;;
23260;SDS011;11799;47.740;-3.390;2023-06-10T10:02:48;0.20;;;0.20;;
23260;SDS011;11799;47.740;-3.390;2023-06-10T10:05:16;0.10;;;0.10;;
23260;SDS011;11799;47.740;-3.390;2023-06-10T10:07:43;0.10;;;0.10;;
23260;SDS011;11799;47.740;-3.390;2023-06-10T10:10:09;0.10;;;0.10;;
23260;SDS011;11799;47.740;-3.390;2023-06-10T10:12:37;0.10;;;0.10;;
23260;SDS011;11799;47.740;-3.390;2023-06-10T10:15:05;0.10;;;0.10;;
23260;SDS011;11799;47.740;-3.390;2023-06-10T10:17:34;0.20;;;0.20;;
23260;SDS011;11799;47.740;-3.390;2023-06-10T10:20:03;0.10;;;0.10;;
23260;SDS011;11799;47.740;-3.390;2023-06-10T10:22:40;0.17;;;0.17;;
23260;SDS011;11799;47.740;-3.390;2023-06-10T10:25:12;0.10;;;0.10;;
23260;SDS011;11799;47.740;-3.390;2023-06-10T10:27:48;0.10;;;0.10;;
23260;SDS011;11799;47.740;-3.390;2023-06-10T10:30:17;0.10;;;0.10;;
23260;SDS011;11799;47.740;-3.390;2023-06-10T10:32:57;0.20;;;0.20;;
23260;SDS011;11799;47.740;-3.390;2023-06-10T10:35:26;0.15;;;0.15;;
23260;SDS011;11799;47.740;-3.390;2023-06-10T10:37:52;0.20;;;0.20;;
23260;SDS011;11799;47.740;-3.390;2023-06-10T10:40:19;0.15;;;0.15;;
23260;SDS011;11799;47.740;-3.390;2023-06-10T10:42:47;0.10;;;0.10;;
23260;SDS011;11799;47.740;-3.390;2023-06-10T10:45:16;0.20;;;0.20;;
23260;SDS011;11799;47.740;-3.390;2023-06-10T10:47:43;0.10;;;0.10;;
23260;SDS011;11799;47.740;-3.390;2023-06-10T10:50:14;0.10;;;0.10;;
23260;SDS011;11799;47.740;-3.390;2023-06-10T10:53:01;0.20;;;0.20;;
23260;SDS011;11799;47.740;-3.390;2023-06-10T10:55:28;0.20;;;0.20;;
23260;SDS011;11799;47.740;-3.390;2023-06-10T11:00:33;0.25;;;0.25;;
23260;SDS011;11799;47.740;-3.390;2023-06-10T11:05:36;0.30;;;0.30;;
23260;SDS011;11799;47.740;-3.390;2023-06-10T11:08:07;0.20;;;0.20;;
23260;SDS011;11799;47.740;-3.390;2023-06-10T11:10:34;0.20;;;0.20;;
23260;SDS011;11799;47.740;-3.390;2023-06-10T11:15:37;0.20;;;0.20;;
23260;SDS011;11799;47.740;-3.390;2023-06-10T11:18:09;0.10;;;0.10;;
23260;SDS011;11799;47.740;-3.390;2023-06-10T11:20:44;0.10;;;0.10;;
23260;SDS011;11799;47.740;-3.390;2023-06-10T11:31:23;0.10;;;0.10;;
23260;SDS011;11799;47.740;-3.390;2023-06-10T11:33:56;0.10;;;0.10;;
23260;SDS011;11799;47.740;-3.390;2023-06-10T11:36:24;0.10;;;0.10;;
23260;SDS011;11799;47.740;-3.390;2023-06-10T11:38:53;0.10;;;0.10;;
23260;SDS011;11799;47.740;-3.390;2023-06-10T11:41:26;0.20;;;0.20;;
23260;SDS011;11799;47.740;-3.390;2023-06-10T11:43:52;0.20;;;0.20;;
23260;SDS011;11799;47.740;-3.390;2023-06-10T11:46:19;0.10;;;0.10;;
23260;SDS011;11799;47.740;-3.390;2023-06-10T11:48:48;0.35;;;0.35;;
23260;SDS011;11799;47.740;-3.390;2023-06-10T11:51:18;0.38;;;0.38;;
23260;SDS011;11799;47.740;-3.390;2023-06-10T11:53:44;0.30;;;0.30;;
23260;SDS011;11799;47.740;-3.390;2023-06-10T11:56:10;0.25;;;0.25;;
23260;SDS011;11799;47.740;-3.390;2023-06-10T11:58:36;0.20;;;0.20;;
23260;SDS011;11799;47.740;-3.390;2023-06-10T12:01:02;0.30;;;0.30;;
23260;SDS011;11799;47.740;-3.390;2023-06-10T12:03:35;0.30;;;0.30;;
23260;SDS011;11799;47.740;-3.390;2023-06-10T12:06:03;0.30;;;0.30;;
23260;SDS011;11799;47.740;-3.390;2023-06-10T12:08:31;0.40;;;0.40;;
23260;SDS011;11799;47.740;-3.390;2023-06-10T12:10:57;0.20;;;0.20;;
23260;SDS011;11799;47.740;-3.390;2023-06-10T12:13:23;0.10;;;0.10;;
23260;SDS011;11799;47.740;-3.390;2023-06-10T12:15:51;0.10;;;0.10;;
23260;SDS011;11799;47.740;-3.390;2023-06-10T12:18:17;0.10;;;0.10;;
23260;SDS011;11799;47.740;-3.390;2023-06-10T12:20:47;0.10;;;0.10;;
23260;SDS011;11799;47.740;-3.390;2023-06-10T12:23:15;0.10;;;0.10;;
23260;SDS011;11799;47.740;-3.390;2023-06-10T12:25:51;0.10;;;0.10;;
23260;SDS011;11799;47.740;-3.390;2023-06-10T12:28:17;0.10;;;0.10;;
23260;SDS011;11799;47.740;-3.390;2023-06-10T12:33:21;0.10;;;0.10;;
23260;SDS011;11799;47.740;-3.390;2023-06-10T12:35:47;0.10;;;0.10;;
23260;SDS011;11799;47.740;-3.390;2023-06-10T12:38:14;0.10;;;0.10;;
23260;SDS011;11799;47.740;-3.390;2023-06-10T12:40:46;0.10;;;0.10;;
23260;SDS011;11799;47.740;-3.390;2023-06-10T12:43:12;0.10;;;0.10;;
23260;SDS011;11799;47.740;-3.390;2023-06-10T12:45:38;0.20;;;0.20;;
23260;SDS011;11799;47.740;-3.390;2023-06-10T12:48:06;0.20;;;0.20;;
23260;SDS011;11799;47.740;-3.390;2023-06-10T12:50:32;0.17;;;0.17;;
23260;SDS011;11799;47.740;-3.390;2023-06-10T12:52:59;0.10;;;0.10;;
23260;SDS011;11799;47.740;-3.390;2023-06-10T12:55:25;0.10;;;0.10;;
23260;SDS011;11799;47.740;-3.390;2023-06-10T12:57:51;0.10;;;0.10;;
23260;SDS011;11799;47.740;-3.390;2023-06-10T13:00:17;0.10;;;0.10;;
23260;SDS011;11799;47.740;-3.390;2023-06-10T13:02:43;0.00;;;0.00;;
23260;SDS011;11799;47.740;-3.390;2023-06-10T13:05:09;0.10;;;0.10;;
23260;SDS011;11799;47.740;-3.390;2023-06-10T13:07:34;0.10;;;0.10;;
23260;SDS011;11799;47.740;-3.390;2023-06-10T13:10:00;0.10;;;0.10;;
23260;SDS011;11799;47.740;-3.390;2023-06-10T13:12:27;0.10;;;0.10;;
23260;SDS011;11799;47.740;-3.390;2023-06-10T13:14:55;0.10;;;0.10;;
23260;SDS011;11799;47.740;-3.390;2023-06-10T13:17:21;0.10;;;0.10;;
23260;SDS011;11799;47.740;-3.390;2023-06-10T13:19:47;0.10;;;0.10;;
23260;SDS011;11799;47.740;-3.390;2023-06-10T13:22:14;0.10;;;0.10;;
23260;SDS011;11799;47.740;-3.390;2023-06-10T13:24:39;0.20;;;0.20;;
23260;SDS011;11799;47.740;-3.390;2023-06-10T13:27:06;0.10;;;0.10;;
23260;SDS011;11799;47.740;-3.390;2023-06-10T13:29:32;0.10;;;0.10;;
23260;SDS011;11799;47.740;-3.390;2023-06-10T13:31:57;0.10;;;0.10;;
23260;SDS011;11799;47.740;-3.390;2023-06-10T13:34:23;0.10;;;0.10;;
23260;SDS011;11799;47.740;-3.390;2023-06-10T13:36:48;0.10;;;0.10;;
23260;SDS011;11799;47.740;-3.390;2023-06-10T13:39:14;0.10;;;0.10;;
23260;SDS011;11799;47.740;-3.390;2023-06-10T13:41:41;0.10;;;0.10;;
23260;SDS011;11799;47.740;-3.390;2023-06-10T13:44:06;0.10;;;0.10;;
23260;SDS011;11799;47.740;-3.390;2023-06-10T13:46:32;0.30;;;0.30;;
23260;SDS011;11799;47.740;-3.390;2023-06-10T13:48:58;0.10;;;0.10;;
23260;SDS011;11799;47.740;-3.390;2023-06-10T13:51:23;0.10;;;0.10;;
23260;SDS011;11799;47.740;-3.390;2023-06-10T13:53:50;0.10;;;0.10;;
23260;SDS011;11799;47.740;-3.390;2023-06-10T13:56:17;0.10;;;0.10;;
23260;SDS011;11799;47.740;-3.390;2023-06-10T13:58:43;0.10;;;0.10;;
23260;SDS011;11799;47.740;-3.390;2023-06-10T14:01:09;0.10;;;0.10;;
23260;SDS011;11799;47.740;-3.390;2023-06-10T14:03:35;0.10;;;0.10;;
23260;SDS011;11799;47.740;-3.390;2023-06-10T14:06:00;0.10;;;0.10;;
23260;SDS011;11799;47.740;-3.390;2023-06-10T14:08:27;0.10;;;0.10;;
23260;SDS011;11799;47.740;-3.390;2023-06-10T14:10:52;0.10;;;0.10;;
23260;SDS011;11799;47.740;-3.390;2023-06-10T14:13:18;0.20;;;0.20;;
23260;SDS011;11799;47.740;-3.390;2023-06-10T14:15:43;0.20;;;0.20;;
23260;SDS011;11799;47.740;-3.390;2023-06-10T14:18:09;0.10;;;0.10;;
23260;SDS011;11799;47.740;-3.390;2023-06-10T14:20:35;0.10;;;0.10;;
23260;SDS011;11799;47.740;-3.390;2023-06-10T14:23:00;0.10;;;0.10;;
23260;SDS011;11799;47.740;-3.390;2023-06-10T14:25:26;0.10;;;0.10;;
23260;SDS011;11799;47.740;-3.390;2023-06-10T14:27:51;0.10;;;0.10;;
23260;SDS011;11799;47.740;-3.390;2023-06-10T14:30:17;0.10;;;0.10;;
23260;SDS011;11799;47.740;-3.390;2023-06-10T14:32:42;0.10;;;0.10;;
23260;SDS011;11799;47.740;-3.390;2023-06-10T14:35:08;0.10;;;0.10;;
23260;SDS011;11799;47.740;-3.390;2023-06-10T14:37:35;0.10;;;0.10;;
23260;SDS011;11799;47.740;-3.390;2023-06-10T14:40:00;0.10;;;0.10;;
23260;SDS011;11799;47.740;-3.390;2023-06-10T14:42:26;0.10;;;0.10;;
23260;SDS011;11799;47.740;-3.390;2023-06-10T14:44:51;0.10;;;0.10;;
23260;SDS011;11799;47.740;-3.390;2023-06-10T14:47:17;0.10;;;0.10;;
23260;SDS011;11799;47.740;-3.390;2023-06-10T14:49:42;0.10;;;0.10;;
23260;SDS011;11799;47.740;-3.390;2023-06-10T14:52:09;0.10;;;0.10;;
23260;SDS011;11799;47.740;-3.390;2023-06-10T14:54:34;0.10;;;0.10;;
23260;SDS011;11799;47.740;-3.390;2023-06-10T14:57:00;0.10;;;0.10;;
23260;SDS011;11799;47.740;-3.390;2023-06-10T14:59:26;0.10;;;0.10;;
23260;SDS011;11799;47.740;-3.390;2023-06-10T15:01:51;0.10;;;0.10;;